Time;durP1;ratioP1;P1;durP2;ratioP2;P2;SDS_P1;SDS_P2;PMS_P1;PMS_P2;Temp;Humidity;BMP_temperature;BMP_pressure;BME280_temperature;BME280_humidity;BME280_pressure;Samples;Min_cycle;Max_cycle;Signal;HPM_P1;HPM_P2
2022/09/11 00:01:35;;;;;;;0.30;0.30;;;13.90;99.90;;;;;;5041452;28;20950;-82
2022/09/11 00:04:05;;;;;;;0.20;0.20;;;13.80;99.90;;;;;;5036496;28;20425;-82
2022/09/11 00:06:32;;;;;;;0.38;0.38;;;13.80;99.90;;;;;;5044097;28;20437;-82
2022/09/11 00:09:02;;;;;;;0.20;0.20;;;13.80;99.90;;;;;;5061193;28;20419;-82
2022/09/11 00:11:32;;;;;;;0.40;0.30;;;13.80;99.90;;;;;;5039808;28;20430;-82
2022/09/11 00:13:59;;;;;;;0.40;0.40;;;13.80;99.90;;;;;;5042437;28;20649;-83
2022/09/11 00:16:30;;;;;;;0.50;0.50;;;13.80;99.90;;;;;;5044975;28;20421;-83
2022/09/11 00:19:00;;;;;;;0.30;0.30;;;13.90;99.90;;;;;;5044868;28;20485;-83
2022/09/11 00:21:28;;;;;;;0.52;0.52;;;13.90;99.90;;;;;;5063864;28;20428;-83
2022/09/11 00:23:56;;;;;;;0.28;0.28;;;14.00;99.90;;;;;;5033871;28;20425;-83
2022/09/11 00:26:26;;;;;;;0.32;0.32;;;13.90;99.90;;;;;;5046686;28;20449;-83
2022/09/11 00:28:53;;;;;;;0.30;0.30;;;13.90;99.90;;;;;;5061387;28;20445;-83
2022/09/11 00:31:24;;;;;;;0.40;0.40;;;13.90;99.90;;;;;;5050553;28;20559;-83
2022/09/11 00:33:51;;;;;;;0.47;0.47;;;13.90;99.90;;;;;;5045227;28;20529;-82
2022/09/11 00:36:21;;;;;;;1.47;0.60;;;13.90;99.90;;;;;;5065285;28;20987;-84
2022/09/11 00:38:49;;;;;;;0.43;0.30;;;13.90;99.90;;;;;;5047855;28;20437;-84
2022/09/11 00:41:25;;;;;;;0.40;0.40;;;13.90;99.90;;;;;;5064172;28;20921;-84
2022/09/11 00:43:51;;;;;;;0.60;0.60;;;14.00;99.90;;;;;;5043556;28;20436;-84
2022/09/11 00:46:19;;;;;;;0.60;0.60;;;14.00;99.90;;;;;;5040814;28;20439;-84
2022/09/11 00:48:48;;;;;;;0.40;0.40;;;14.00;99.90;;;;;;5041916;28;20426;-85
2022/09/11 00:51:32;;;;;;;0.40;0.40;;;14.00;99.90;;;;;;5039271;28;20483;-85
2022/09/11 00:54:02;;;;;;;0.40;0.40;;;14.10;99.90;;;;;;5055722;28;20431;-85
2022/09/11 00:56:35;;;;;;;0.57;0.57;;;14.10;99.90;;;;;;5051028;28;20499;-85
2022/09/11 00:59:03;;;;;;;0.60;0.60;;;14.20;99.90;;;;;;5051504;28;20852;-85
2022/09/11 01:01:30;;;;;;;0.40;0.40;;;14.20;99.90;;;;;;5043877;28;20926;-84
2022/09/11 01:03:57;;;;;;;0.60;0.60;;;14.20;99.90;;;;;;5040129;28;20919;-84
2022/09/11 01:06:24;;;;;;;0.50;0.50;;;14.20;99.90;;;;;;5065022;28;20435;-84
2022/09/11 01:08:51;;;;;;;0.50;0.40;;;14.20;99.90;;;;;;5065295;28;20435;-84
2022/09/11 01:11:30;;;;;;;0.65;0.65;;;14.20;99.90;;;;;;5043345;28;20429;-84
2022/09/11 01:14:15;;;;;;;0.77;0.77;;;14.30;99.90;;;;;;5057249;28;20686;-84
2022/09/11 01:17:06;;;;;;;0.57;0.57;;;14.30;99.90;;;;;;5068699;28;20439;-82
2022/09/11 01:19:57;;;;;;;0.80;0.80;;;14.30;99.90;;;;;;5041641;28;20972;-83
2022/09/11 01:23:29;;;;;;;0.63;0.63;;;14.40;99.90;;;;;;5051414;28;20515;-83
2022/09/11 01:26:31;;;;;;;0.70;0.70;;;14.40;99.90;;;;;;4965334;28;20858;-83
2022/09/11 01:29:04;;;;;;;0.70;0.70;;;14.40;99.90;;;;;;5061251;28;20431;-83
2022/09/11 01:31:41;;;;;;;1.40;0.93;;;14.40;99.90;;;;;;5064807;28;20423;-83
2022/09/11 01:34:21;;;;;;;1.02;0.93;;;14.50;99.90;;;;;;5044375;28;20493;-83
2022/09/11 01:37:04;;;;;;;1.13;1.10;;;14.50;99.90;;;;;;5045125;28;20438;-83
2022/09/11 01:39:38;;;;;;;0.90;0.90;;;14.50;99.90;;;;;;5036062;28;20438;-83
2022/09/11 01:42:13;;;;;;;1.35;1.25;;;14.50;99.90;;;;;;5052577;28;20463;-83
2022/09/11 01:44:49;;;;;;;1.35;1.27;;;14.50;99.90;;;;;;5066608;28;20442;-83
2022/09/11 01:47:18;;;;;;;1.08;1.00;;;14.40;99.90;;;;;;5041544;28;20442;-83
2022/09/11 01:49:57;;;;;;;1.27;1.10;;;14.40;99.90;;;;;;5045747;28;20534;-83
2022/09/11 01:52:33;;;;;;;1.02;1.00;;;14.30;99.90;;;;;;5056063;28;20506;-83
2022/09/11 01:55:07;;;;;;;1.13;1.02;;;14.30;99.90;;;;;;5062744;28;20445;-83
2022/09/11 01:57:44;;;;;;;1.45;1.35;;;14.30;99.90;;;;;;5067128;28;20588;-83
2022/09/11 02:00:12;;;;;;;1.63;1.53;;;14.30;99.90;;;;;;5065346;28;20436;-83
2022/09/11 02:02:55;;;;;;;1.30;1.30;;;14.30;99.90;;;;;;5052380;28;20495;-83
2022/09/11 02:05:32;;;;;;;1.65;1.55;;;14.20;99.90;;;;;;5042758;28;20509;-83
2022/09/11 02:08:12;;;;;;;1.48;1.38;;;14.20;99.90;;;;;;5060951;28;20427;-83
2022/09/11 02:10:52;;;;;;;1.50;1.42;;;14.20;99.90;;;;;;5066167;28;20435;-83
2022/09/11 02:13:28;;;;;;;1.08;0.98;;;14.00;99.90;;;;;;5060744;28;20439;-83
2022/09/11 02:16:15;;;;;;;1.77;1.67;;;14.00;99.90;;;;;;5067837;28;20431;-83
2022/09/11 02:19:08;;;;;;;1.52;1.50;;;13.90;99.90;;;;;;5035065;28;21010;-83
2022/09/11 02:21:37;;;;;;;1.55;1.50;;;13.90;99.90;;;;;;5057243;28;20447;-83
2022/09/11 02:24:08;;;;;;;1.25;1.15;;;13.90;99.90;;;;;;5062522;28;20500;-82
2022/09/11 02:26:42;;;;;;;1.25;1.25;;;14.00;99.90;;;;;;5065206;28;20497;-83
2022/09/11 02:29:10;;;;;;;1.83;1.73;;;14.00;99.90;;;;;;5046162;28;20526;-83
2022/09/11 02:31:38;;;;;;;1.65;1.55;;;14.00;99.90;;;;;;5060602;28;20440;-83
2022/09/11 02:34:05;;;;;;;1.52;1.42;;;14.00;99.90;;;;;;5043939;28;20516;-83
2022/09/11 02:37:00;;;;;;;1.67;1.58;;;14.00;99.90;;;;;;5041360;28;20952;-83
2022/09/11 02:40:11;;;;;;;1.70;1.60;;;14.00;99.90;;;;;;5030096;28;20444;-82
2022/09/11 02:43:12;;;;;;;1.65;1.55;;;14.00;99.90;;;;;;5023211;28;20434;-83
2022/09/11 02:45:57;;;;;;;1.77;1.67;;;14.00;99.90;;;;;;5005504;28;20419;-82
2022/09/11 02:48:45;;;;;;;1.80;1.70;;;14.10;99.90;;;;;;5004082;28;20967;-83
2022/09/11 02:51:27;;;;;;;1.75;1.65;;;14.00;99.90;;;;;;5021897;28;20442;-82
2022/09/11 02:54:34;;;;;;;2.10;2.00;;;13.90;99.90;;;;;;5003696;28;20439;-83
2022/09/11 02:57:25;;;;;;;1.80;1.70;;;13.90;99.90;;;;;;5025385;28;20439;-82
2022/09/11 03:00:06;;;;;;;1.98;1.88;;;13.90;99.90;;;;;;5006704;28;21039;-83
2022/09/11 03:02:36;;;;;;;2.00;1.83;;;13.80;99.90;;;;;;5005328;28;20803;-83
2022/09/11 03:05:04;;;;;;;1.60;1.50;;;13.80;99.90;;;;;;5012799;28;20445;-83
2022/09/11 03:07:31;;;;;;;2.28;1.83;;;13.90;99.90;;;;;;5001687;28;21423;-83
2022/09/11 03:09:58;;;;;;;1.70;1.60;;;13.90;99.90;;;;;;5005809;28;20427;-83
2022/09/11 03:12:28;;;;;;;2.08;1.98;;;13.90;99.90;;;;;;5015267;28;20483;-83
2022/09/11 03:14:56;;;;;;;2.92;1.88;;;13.90;99.90;;;;;;5054902;28;20921;-82
2022/09/11 03:17:24;;;;;;;1.95;1.75;;;13.90;99.90;;;;;;5044596;28;20437;-83
2022/09/11 03:19:50;;;;;;;1.80;1.58;;;13.90;99.90;;;;;;5059806;28;20850;-83
2022/09/11 03:22:18;;;;;;;1.77;1.67;;;14.00;99.90;;;;;;5066471;28;20447;-83
2022/09/11 03:24:44;;;;;;;1.88;1.77;;;14.00;99.90;;;;;;5044609;28;20484;-83
2022/09/11 03:27:11;;;;;;;2.38;2.17;;;14.00;99.90;;;;;;5047958;28;20431;-83
2022/09/11 03:29:38;;;;;;;2.33;2.17;;;14.00;99.90;;;;;;5060951;28;20452;-83
2022/09/11 03:32:05;;;;;;;2.25;2.15;;;14.00;99.90;;;;;;5038766;28;20478;-83
2022/09/11 03:34:34;;;;;;;2.85;2.20;;;14.00;99.90;;;;;;5058882;28;20925;-83
2022/09/11 03:37:03;;;;;;;1.80;1.63;;;13.90;99.90;;;;;;5042242;28;20443;-83
2022/09/11 03:39:30;;;;;;;2.00;1.90;;;13.90;99.90;;;;;;5063940;28;20458;-83
2022/09/11 03:41:57;;;;;;;2.17;1.97;;;13.90;99.90;;;;;;5061619;28;20431;-83
2022/09/11 03:44:24;;;;;;;1.70;1.60;;;13.90;99.90;;;;;;5058587;28;20441;-82
2022/09/11 03:46:51;;;;;;;2.38;2.22;;;13.90;99.90;;;;;;5045371;28;20515;-83
2022/09/11 03:49:19;;;;;;;2.13;2.03;;;13.90;99.90;;;;;;5042633;28;20425;-83
2022/09/11 03:51:46;;;;;;;2.00;1.80;;;13.90;99.90;;;;;;5042055;28;20429;-83
2022/09/11 03:54:14;;;;;;;1.80;1.70;;;14.00;99.90;;;;;;5055856;28;20457;-83
2022/09/11 03:56:44;;;;;;;1.90;1.80;;;14.00;99.90;;;;;;5045568;28;20425;-82
2022/09/11 03:59:12;;;;;;;2.40;2.20;;;14.00;99.90;;;;;;5061036;28;20439;-83
2022/09/11 04:01:38;;;;;;;3.13;2.40;;;14.10;99.90;;;;;;5063907;28;20439;-82
2022/09/11 04:04:05;;;;;;;2.30;2.10;;;14.10;99.90;;;;;;5063367;28;20571;-83
2022/09/11 04:06:32;;;;;;;2.22;2.03;;;14.00;99.90;;;;;;5042690;28;20803;-83
2022/09/11 04:08:59;;;;;;;2.17;1.83;;;14.00;99.90;;;;;;5057897;28;20481;-82
2022/09/11 04:11:26;;;;;;;2.67;2.47;;;13.90;99.90;;;;;;5066126;28;20435;-82
2022/09/11 04:13:53;;;;;;;1.98;1.88;;;13.90;99.90;;;;;;5042606;28;20544;-82
2022/09/11 04:16:20;;;;;;;2.05;1.60;;;13.90;99.90;;;;;;5067288;28;20807;-83
2022/09/11 04:18:48;;;;;;;2.30;2.17;;;13.80;99.90;;;;;;5048276;28;20953;-83
2022/09/11 04:21:16;;;;;;;2.30;2.10;;;13.80;99.90;;;;;;5064248;28;22063;-83
2022/09/11 04:23:44;;;;;;;2.38;2.17;;;13.80;99.90;;;;;;5029824;28;20944;-82
2022/09/11 04:26:17;;;;;;;2.17;2.03;;;13.70;99.90;;;;;;5043092;28;20455;-82
2022/09/11 04:28:44;;;;;;;2.40;2.20;;;13.60;99.90;;;;;;5044067;28;20433;-83
2022/09/11 04:31:12;;;;;;;2.78;2.47;;;13.60;99.90;;;;;;5059724;28;20481;-83
2022/09/11 04:33:39;;;;;;;2.72;2.30;;;13.50;99.90;;;;;;5043781;28;20983;-82
2022/09/11 04:36:08;;;;;;;3.15;2.75;;;13.40;99.90;;;;;;5065035;28;20788;-82
2022/09/11 04:38:36;;;;;;;2.63;2.42;;;13.40;99.90;;;;;;5064732;28;20480;-82
2022/09/11 04:41:06;;;;;;;2.70;2.50;;;13.40;99.90;;;;;;5068078;28;20424;-82
2022/09/11 04:43:38;;;;;;;2.47;2.27;;;13.30;99.90;;;;;;5033832;28;20487;-82
2022/09/11 04:46:14;;;;;;;2.92;2.63;;;13.40;99.90;;;;;;5057224;28;20518;-82
2022/09/11 04:48:58;;;;;;;2.45;2.25;;;13.40;99.90;;;;;;5071636;28;20429;-82
2022/09/11 04:51:26;;;;;;;2.92;2.70;;;13.50;99.90;;;;;;5068207;28;20442;-83
2022/09/11 04:53:59;;;;;;;2.65;2.45;;;13.60;99.90;;;;;;5064462;28;20423;-82
2022/09/11 04:56:31;;;;;;;2.72;2.53;;;13.60;99.90;;;;;;5051892;28;20856;-82
2022/09/11 04:59:01;;;;;;;3.70;2.53;;;13.60;99.90;;;;;;5044589;28;20929;-82
2022/09/11 05:01:35;;;;;;;3.17;2.47;;;13.50;99.90;;;;;;5065682;28;20462;-82
2022/09/11 05:04:01;;;;;;;2.40;2.20;;;13.40;99.90;;;;;;5041203;28;20600;-82
2022/09/11 05:06:29;;;;;;;3.30;2.25;;;13.40;99.90;;;;;;5044870;28;20433;-82
2022/09/11 05:09:03;;;;;;;2.90;2.60;;;13.40;99.90;;;;;;5041884;28;21665;-82
2022/09/11 05:11:33;;;;;;;4.25;3.00;;;13.40;99.90;;;;;;5071225;28;20457;-82
2022/09/11 05:14:00;;;;;;;3.33;3.00;;;13.40;99.90;;;;;;5064753;28;20471;-80
2022/09/11 05:16:28;;;;;;;3.17;2.40;;;13.40;99.90;;;;;;5064782;28;20435;-81
2022/09/11 05:18:56;;;;;;;4.07;3.20;;;13.30;99.90;;;;;;5073764;28;20481;-81
2022/09/11 05:21:24;;;;;;;2.97;2.65;;;13.20;99.90;;;;;;5045717;28;20518;-81
2022/09/11 05:23:58;;;;;;;3.22;3.00;;;13.20;99.90;;;;;;5046046;28;20433;-81
2022/09/11 05:26:27;;;;;;;3.22;2.90;;;13.10;99.90;;;;;;5063241;28;20434;-81
2022/09/11 05:28:55;;;;;;;3.38;2.88;;;13.10;99.90;;;;;;5049911;28;20490;-82
2022/09/11 05:31:28;;;;;;;2.50;2.28;;;13.10;99.90;;;;;;5064872;28;20838;-82
2022/09/11 05:33:59;;;;;;;3.05;2.85;;;13.20;99.90;;;;;;5070104;28;20928;-81
2022/09/11 05:36:27;;;;;;;3.35;2.45;;;13.20;99.90;;;;;;5063719;28;22107;-82
2022/09/11 05:38:53;;;;;;;2.58;2.35;;;13.20;99.90;;;;;;5043388;28;20797;-82
2022/09/11 05:41:20;;;;;;;2.30;2.10;;;13.30;99.90;;;;;;5045233;28;20437;-82
2022/09/11 05:43:50;;;;;;;2.55;2.35;;;13.40;99.90;;;;;;5062545;28;20431;-83
2022/09/11 05:46:20;;;;;;;2.90;2.60;;;13.40;99.90;;;;;;5063546;28;20435;-82
2022/09/11 05:48:47;;;;;;;2.87;2.67;;;13.50;99.90;;;;;;5066761;28;20462;-83
2022/09/11 05:51:20;;;;;;;2.80;2.60;;;13.50;99.90;;;;;;5043563;28;20720;-83
2022/09/11 05:53:54;;;;;;;2.25;2.08;;;13.50;99.90;;;;;;5048315;28;20941;-82
2022/09/11 05:56:23;;;;;;;3.00;2.60;;;13.70;99.90;;;;;;5065363;28;20995;-83
2022/09/11 05:58:50;;;;;;;2.17;2.07;;;13.80;99.90;;;;;;5064349;28;20439;-84
2022/09/11 06:01:20;;;;;;;2.75;2.42;;;13.90;99.90;;;;;;5071994;28;20443;-83
2022/09/11 06:03:48;;;;;;;2.63;2.42;;;14.00;99.90;;;;;;5064882;28;20520;-83
2022/09/11 06:06:16;;;;;;;2.47;2.28;;;14.10;99.90;;;;;;5069387;28;20471;-83
2022/09/11 06:08:49;;;;;;;2.55;2.08;;;14.30;99.90;;;;;;5050451;28;20437;-84
2022/09/11 06:11:17;;;;;;;2.50;2.40;;;14.80;99.90;;;;;;5059431;28;20479;-85
2022/09/11 06:13:45;;;;;;;2.20;2.10;;;15.40;99.90;;;;;;5061522;28;21108;-85
2022/09/11 06:16:18;;;;;;;2.55;2.35;;;16.00;99.90;;;;;;5055941;28;20448;-85
2022/09/11 06:18:47;;;;;;;3.25;2.75;;;16.50;99.90;;;;;;5065555;28;20843;-85
2022/09/11 06:21:18;;;;;;;2.95;2.50;;;16.90;99.90;;;;;;5057550;28;20433;-85
2022/09/11 06:23:46;;;;;;;3.03;2.38;;;;;;;;;;5040716;28;20443;-85
2022/09/11 06:26:14;;;;;;;2.47;2.28;;;;;;;;;;5052605;28;20997;-83
2022/09/11 06:28:41;;;;;;;2.60;2.40;;;;;;;;;;5037793;28;21238;-83
2022/09/11 06:31:15;;;;;;;2.50;2.30;;;;;;;;;;5057037;28;20426;-83
2022/09/11 06:33:42;;;;;;;2.60;2.40;;;;;;;;;;5044194;28;20425;-83
2022/09/11 06:36:14;;;;;;;2.42;2.30;;;;;;;;;;5059815;28;20442;-82
2022/09/11 06:38:43;;;;;;;2.10;2.00;;;;;;;;;;5063266;28;20512;-83
2022/09/11 06:41:12;;;;;;;2.53;2.37;;;;;;;;;;5072747;28;21389;-83
2022/09/11 06:43:46;;;;;;;2.50;2.17;;;;;;;;;;5068553;28;20458;-84
2022/09/11 06:46:14;;;;;;;3.58;2.85;;;;;;;;;;5043175;28;20425;-84
2022/09/11 06:48:45;;;;;;;5.03;2.88;;;;;;;;;;5044407;28;20432;-84
2022/09/11 06:51:15;;;;;;;3.00;2.80;;;17.10;99.90;;;;;;5054816;28;20508;-84
2022/09/11 06:53:43;;;;;;;2.83;2.63;;;21.60;99.90;;;;;;5060549;28;20910;-84
2022/09/11 06:56:15;;;;;;;2.35;2.13;;;21.80;99.90;;;;;;5063325;28;20523;-84
2022/09/11 06:58:44;;;;;;;2.85;2.63;;;21.90;99.90;;;;;;5059262;28;20541;-83
2022/09/11 07:01:13;;;;;;;3.47;3.17;;;22.00;99.90;;;;;;5063024;28;20436;-84
2022/09/11 07:03:48;;;;;;;3.50;3.03;;;22.00;99.90;;;;;;5038249;28;20437;-85
2022/09/11 07:06:27;;;;;;;2.40;2.25;;;21.90;99.90;;;;;;5048449;28;20437;-84
2022/09/11 07:09:01;;;;;;;2.38;2.17;;;21.70;99.90;;;;;;5061036;28;20440;-84
2022/09/11 07:11:33;;;;;;;3.25;2.60;;;21.50;99.90;;;;;;5058139;28;20459;-84
2022/09/11 07:14:04;;;;;;;2.53;2.33;;;21.70;99.90;;;;;;5063545;28;20438;-84
2022/09/11 07:16:31;;;;;;;2.17;2.08;;;21.50;99.90;;;;;;5058480;28;20443;-84
2022/09/11 07:18:59;;;;;;;2.10;2.00;;;21.10;99.90;;;;;;5057135;28;20427;-85
2022/09/11 07:21:26;;;;;;;2.00;1.90;;;20.60;99.90;;;;;;5052881;28;20444;-85
2022/09/11 07:23:56;;;;;;;1.98;1.88;;;20.40;99.90;;;;;;5045111;28;20549;-85
2022/09/11 07:26:26;;;;;;;2.45;2.13;;;20.40;99.90;;;;;;5039255;28;20448;-84
2022/09/11 07:28:58;;;;;;;1.77;1.67;;;20.70;99.90;;;;;;5055274;28;20439;-84
2022/09/11 07:31:31;;;;;;;2.00;1.90;;;20.40;99.90;;;;;;5039236;28;20454;-84
2022/09/11 07:33:59;;;;;;;2.17;2.08;;;20.50;99.90;;;;;;5036038;28;20438;-84
2022/09/11 07:36:33;;;;;;;2.13;1.95;;;20.80;99.90;;;;;;5037484;28;20503;-85
2022/09/11 07:39:00;;;;;;;2.42;2.22;;;21.00;99.90;;;;;;5061645;28;20462;-84
2022/09/11 07:41:30;;;;;;;2.30;2.13;;;21.50;99.90;;;;;;5064765;28;20447;-85
2022/09/11 07:44:02;;;;;;;2.10;2.00;;;21.80;99.90;;;;;;5042550;28;20441;-85
2022/09/11 07:46:31;;;;;;;2.92;2.20;;;22.10;99.90;;;;;;5064188;28;20439;-84
2022/09/11 07:48:58;;;;;;;2.20;2.00;;;22.30;99.90;;;;;;5062109;28;20493;-84
2022/09/11 07:51:25;;;;;;;2.33;2.13;;;23.00;99.90;;;;;;5054639;28;20457;-85
2022/09/11 07:53:53;;;;;;;1.80;1.70;;;23.50;99.90;;;;;;5060370;28;20420;-85
2022/09/11 07:56:22;;;;;;;2.22;2.03;;;23.60;99.90;;;;;;5066640;28;20431;-86
2022/09/11 07:58:51;;;;;;;3.00;2.40;;;23.50;99.90;;;;;;5056296;28;20519;-86
2022/09/11 08:01:20;;;;;;;1.92;1.83;;;22.60;99.90;;;;;;5058880;28;20427;-85
2022/09/11 08:03:51;;;;;;;2.50;2.30;;;21.90;99.90;;;;;;5031958;28;20441;-86
2022/09/11 08:06:19;;;;;;;2.30;2.13;;;21.40;99.90;;;;;;5042553;28;20435;-85
2022/09/11 08:08:55;;;;;;;3.15;2.88;;;21.20;99.90;;;;;;5038963;28;20844;-86
2022/09/11 08:11:27;;;;;;;3.40;2.70;;;20.90;99.90;;;;;;5036051;28;20917;-86
2022/09/11 08:13:55;;;;;;;3.10;2.80;;;20.40;99.90;;;;;;5033128;28;20430;-85
2022/09/11 08:16:24;;;;;;;6.28;3.83;;;20.30;99.90;;;;;;5055573;28;20423;-85
2022/09/11 08:18:51;;;;;;;4.90;3.10;;;20.20;99.90;;;;;;5036600;28;20437;-86
2022/09/11 08:21:22;;;;;;;4.90;3.55;;;20.20;99.90;;;;;;5060054;28;20613;-84
2022/09/11 08:23:48;;;;;;;4.22;3.25;;;20.40;99.90;;;;;;5041002;28;20486;-86
2022/09/11 08:26:16;;;;;;;6.28;3.80;;;;;;;;;;5062547;28;20431;-84
2022/09/11 08:28:43;;;;;;;2.80;2.47;;;20.70;99.90;;;;;;5060610;28;20469;-86
2022/09/11 08:31:11;;;;;;;6.00;3.10;;;;;;;;;;5056754;28;20439;-87
2022/09/11 08:33:39;;;;;;;3.45;2.72;;;;;;;;;;5062449;28;20446;-86
2022/09/11 08:36:10;;;;;;;4.90;3.30;;;21.50;99.90;;;;;;5064599;28;20467;-86
2022/09/11 08:38:37;;;;;;;3.17;2.87;;;23.60;99.90;;;;;;5062356;28;20449;-86
2022/09/11 08:41:33;;;;;;;2.47;2.28;;;24.20;99.90;;;;;;5034789;28;20435;-87
2022/09/11 08:44:08;;;;;;;2.78;2.17;;;24.40;99.90;;;;;;5047851;28;20997;-87
2022/09/11 08:46:42;;;;;;;2.67;2.47;;;24.60;99.90;;;;;;5056055;28;20434;-79
2022/09/11 08:49:15;;;;;;;3.15;2.85;;;25.00;99.90;;;;;;5060012;28;20427;-79
2022/09/11 08:51:43;;;;;;;4.07;2.80;;;24.70;99.90;;;;;;5055565;28;20447;-79
2022/09/11 08:54:21;;;;;;;3.15;2.40;;;24.30;99.90;;;;;;5061728;28;20439;-79
2022/09/11 08:56:49;;;;;;;2.95;2.65;;;24.10;99.90;;;;;;5061043;28;20836;-79
2022/09/11 08:59:35;;;;;;;3.15;2.58;;;24.30;99.90;;;;;;5035411;28;20449;-79
2022/09/11 09:02:40;;;;;;;3.40;2.90;;;25.00;99.90;;;;;;5068505;28;20439;-79
2022/09/11 09:05:31;;;;;;;3.33;2.57;;;25.40;99.90;;;;;;5047296;28;20800;-79
2022/09/11 09:08:26;;;;;;;2.70;2.47;;;25.40;99.90;;;;;;5066160;28;20477;-79
2022/09/11 09:10:58;;;;;;;3.65;3.10;;;25.00;99.90;;;;;;5069481;28;20490;-79
2022/09/11 09:13:44;;;;;;;3.10;2.40;;;24.80;99.90;;;;;;5067157;28;20894;-78
2022/09/11 09:16:30;;;;;;;2.47;2.33;;;24.60;99.90;;;;;;5041125;28;20488;-78
2022/09/11 09:19:02;;;;;;;2.67;2.47;;;24.50;99.90;;;;;;5057714;28;20930;-79
2022/09/11 09:21:44;;;;;;;3.53;2.67;;;24.10;99.90;;;;;;5069789;28;20431;-79
2022/09/11 09:24:20;;;;;;;2.83;2.53;;;24.00;99.90;;;;;;5059463;28;20442;-78
2022/09/11 09:26:51;;;;;;;2.60;2.25;;;24.10;99.90;;;;;;5069584;28;20435;-78
2022/09/11 09:29:39;;;;;;;3.40;3.13;;;24.30;99.90;;;;;;5046106;28;20510;-78
2022/09/11 09:32:13;;;;;;;3.53;2.53;;;24.10;99.90;;;;;;5064288;28;20444;-79
2022/09/11 09:34:49;;;;;;;3.30;2.78;;;24.20;99.90;;;;;;5066323;28;20435;-78
2022/09/11 09:37:21;;;;;;;2.30;2.17;;;24.10;99.90;;;;;;5057135;28;20488;-79
2022/09/11 09:39:49;;;;;;;2.78;2.40;;;24.20;99.90;;;;;;5067532;28;20434;-78
2022/09/11 09:42:54;;;;;;;2.33;2.10;;;24.20;99.90;;;;;;5044912;28;20769;-79
2022/09/11 09:45:41;;;;;;;3.05;2.35;;;24.70;99.90;;;;;;5022583;28;20441;-78
2022/09/11 09:48:10;;;;;;;1.92;1.83;;;24.60;99.90;;;;;;5067761;28;20730;-79
2022/09/11 09:50:39;;;;;;;2.60;2.40;;;24.70;99.90;;;;;;5069673;28;20564;-79
2022/09/11 09:53:32;;;;;;;3.65;2.97;;;24.90;99.90;;;;;;5061197;28;20427;-79
2022/09/11 09:56:00;;;;;;;3.15;2.85;;;25.30;99.90;;;;;;5032694;28;20489;-78
2022/09/11 09:58:35;;;;;;;2.10;2.00;;;25.20;99.90;;;;;;5068377;28;20419;-78
2022/09/11 10:01:25;;;;;;;2.42;2.28;;;24.60;99.90;;;;;;5071714;28;20632;-78
2022/09/11 10:04:26;;;;;;;2.55;2.40;;;24.10;99.90;;;;;;5047719;28;20434;-78
2022/09/11 10:07:10;;;;;;;2.95;2.65;;;23.40;99.90;;;;;;5048686;28;20837;-78
2022/09/11 10:09:45;;;;;;;2.67;2.20;;;22.70;99.90;;;;;;5064363;28;20434;-78
2022/09/11 10:12:18;;;;;;;2.13;1.92;;;22.30;99.90;;;;;;5038450;28;20425;-78
2022/09/11 10:14:58;;;;;;;1.92;1.83;;;22.10;99.90;;;;;;5047565;28;20444;-78
2022/09/11 10:17:28;;;;;;;2.60;2.15;;;22.10;99.90;;;;;;5062906;28;20431;-78
2022/09/11 10:20:18;;;;;;;2.72;2.33;;;22.30;99.90;;;;;;5067363;28;20465;-78
2022/09/11 10:22:45;;;;;;;2.43;2.23;;;22.40;99.90;;;;;;5043611;28;20436;-78
2022/09/11 10:25:25;;;;;;;2.53;2.33;;;22.00;99.90;;;;;;5068080;28;20573;-78
2022/09/11 10:28:04;;;;;;;2.00;1.83;;;22.00;99.90;;;;;;5067094;28;20435;-78
2022/09/11 10:30:37;;;;;;;2.10;1.90;;;22.10;99.90;;;;;;5038464;28;20421;-77
2022/09/11 10:33:16;;;;;;;2.83;2.20;;;22.50;99.90;;;;;;5066500;28;20917;-78
2022/09/11 10:35:52;;;;;;;2.35;2.15;;;23.30;99.90;;;;;;5049537;28;20424;-78
2022/09/11 10:38:20;;;;;;;2.45;1.88;;;24.20;99.90;;;;;;5058608;28;20432;-78
2022/09/11 10:41:04;;;;;;;1.92;1.83;;;24.50;99.90;;;;;;5044315;28;20556;-77
2022/09/11 10:44:06;;;;;;;2.13;1.92;;;24.70;99.90;;;;;;5041183;28;20458;-78
2022/09/11 10:46:38;;;;;;;1.45;1.35;;;23.90;99.90;;;;;;5055313;28;20431;-78
2022/09/11 10:49:05;;;;;;;1.63;1.55;;;23.70;99.90;;;;;;5048093;28;20428;-77
2022/09/11 10:51:34;;;;;;;1.20;1.10;;;23.70;99.90;;;;;;5068447;28;20424;-78
2022/09/11 10:54:30;;;;;;;1.50;1.38;;;23.70;99.90;;;;;;5067418;28;20419;-77
2022/09/11 10:57:15;;;;;;;1.80;1.70;;;23.70;99.90;;;;;;5018410;28;20423;-77
2022/09/11 11:00:01;;;;;;;1.73;1.50;;;23.50;99.90;;;;;;5046404;28;20466;-78
2022/09/11 11:02:31;;;;;;;1.70;1.60;;;23.50;99.90;;;;;;5044176;28;20421;-78
2022/09/11 11:05:39;;;;;;;1.33;1.33;;;24.00;99.90;;;;;;5065469;28;20440;-78
2022/09/11 11:08:39;;;;;;;1.58;1.48;;;24.70;99.90;;;;;;5028175;28;20927;-78
2022/09/11 11:11:39;;;;;;;1.30;1.20;;;24.60;99.90;;;;;;5014762;28;20520;-77
2022/09/11 11:14:31;;;;;;;1.42;1.33;;;23.90;99.90;;;;;;5024420;28;20453;-78
2022/09/11 11:17:17;;;;;;;1.10;1.10;;;23.10;99.90;;;;;;5008366;28;20484;-77
2022/09/11 11:20:08;;;;;;;1.63;1.50;;;22.70;99.90;;;;;;5014482;28;20988;-77
2022/09/11 11:22:50;;;;;;;1.30;1.20;;;22.20;99.90;;;;;;5024251;28;20936;-77
2022/09/11 11:25:39;;;;;;;1.33;1.30;;;21.80;99.90;;;;;;5031628;28;20429;-77
2022/09/11 11:28:20;;;;;;;1.30;1.20;;;21.50;99.90;;;;;;5005375;28;20442;-77
2022/09/11 11:30:47;;;;;;;1.45;1.38;;;;;;;;;;5023311;28;20434;-77
2022/09/11 11:33:50;;;;;;;1.23;1.13;;;21.30;99.90;;;;;;5024567;28;20492;-77
2022/09/11 11:36:38;;;;;;;1.30;1.20;;;21.00;99.90;;;;;;5029725;28;20434;-77
2022/09/11 11:39:19;;;;;;;1.23;1.20;;;21.00;99.90;;;;;;5047748;28;20436;-77
2022/09/11 11:41:58;;;;;;;1.00;1.00;;;21.20;99.90;;;;;;5058992;28;20466;-77
2022/09/11 11:44:38;;;;;;;1.38;1.30;;;21.40;99.90;;;;;;5060278;28;20427;-77
2022/09/11 11:47:08;;;;;;;0.90;0.90;;;21.50;99.90;;;;;;5058379;28;20438;-77
2022/09/11 11:50:10;;;;;;;1.25;1.20;;;21.60;99.90;;;;;;5044232;28;20441;-77
2022/09/11 11:53:16;;;;;;;1.42;1.33;;;21.70;99.90;;;;;;5061052;28;20435;-77
2022/09/11 11:55:47;;;;;;;1.45;1.35;;;21.60;99.90;;;;;;4996195;28;21072;-77
2022/09/11 11:58:26;;;;;;;1.55;1.45;;;21.80;99.90;;;;;;5034345;28;20483;-77
2022/09/11 12:01:00;;;;;;;1.60;1.50;;;22.10;99.90;;;;;;5056768;28;20552;-77
2022/09/11 12:03:35;;;;;;;1.30;1.30;;;22.30;99.90;;;;;;5039543;28;20920;-77
2022/09/11 12:06:04;;;;;;;1.60;1.50;;;22.50;99.90;;;;;;5060965;28;20431;-77
2022/09/11 12:08:32;;;;;;;1.30;1.20;;;22.60;99.90;;;;;;5036726;28;20440;-77
2022/09/11 12:11:06;;;;;;;1.30;1.23;;;22.80;99.90;;;;;;5051024;28;21373;-78
2022/09/11 12:13:39;;;;;;;1.50;1.40;;;23.20;99.90;;;;;;5040022;28;20431;-77
2022/09/11 12:16:30;;;;;;;1.60;1.33;;;23.20;99.90;;;;;;5042473;28;20575;-77
2022/09/11 12:19:27;;;;;;;1.17;1.15;;;23.50;99.90;;;;;;5063331;28;20493;-78
2022/09/11 12:22:05;;;;;;;1.40;1.30;;;23.90;99.90;;;;;;5029785;28;20449;-77
2022/09/11 12:24:53;;;;;;;1.50;1.40;;;24.40;99.90;;;;;;5053312;28;20621;-78
2022/09/11 12:27:54;;;;;;;1.20;1.20;;;25.10;99.90;;;;;;5066003;28;20436;-77
2022/09/11 12:30:26;;;;;;;1.60;1.50;;;25.90;99.90;;;;;;5008225;28;21539;-78
2022/09/11 12:32:56;;;;;;;1.38;1.30;;;26.50;99.90;;;;;;5058943;28;20443;-78
2022/09/11 12:35:44;;;;;;;1.38;1.38;;;26.60;99.90;;;;;;5064095;28;20435;-77
2022/09/11 12:38:29;;;;;;;1.25;1.15;;;26.20;99.90;;;;;;5059805;28;20427;-77
2022/09/11 12:41:06;;;;;;;2.17;1.70;;;25.80;99.90;;;;;;5059315;28;20443;-78
2022/09/11 12:43:36;;;;;;;1.60;1.50;;;25.90;99.90;;;;;;5057961;28;20481;-78
2022/09/11 12:46:21;;;;;;;1.30;1.20;;;26.80;99.90;;;;;;5059014;28;20420;-78
2022/09/11 12:48:57;;;;;;;1.10;1.10;;;27.50;99.90;;;;;;5041922;28;20512;-78
2022/09/11 12:51:52;;;;;;;1.60;1.50;;;28.00;99.90;;;;;;5058767;28;20554;-77
2022/09/11 12:54:36;;;;;;;1.52;1.42;;;28.30;99.90;;;;;;5065161;28;20423;-77
2022/09/11 12:57:19;;;;;;;1.60;1.50;;;28.30;99.90;;;;;;5045782;28;20442;-77
2022/09/11 12:59:54;;;;;;;1.58;1.50;;;27.80;99.90;;;;;;5031681;28;20931;-78
2022/09/11 13:02:27;;;;;;;1.80;1.70;;;27.40;99.90;;;;;;5050424;28;20432;-78
2022/09/11 13:04:54;;;;;;;1.60;1.50;;;26.60;99.90;;;;;;5058590;28;20530;-78
2022/09/11 13:07:31;;;;;;;1.27;1.27;;;25.40;99.90;;;;;;5060412;28;20520;-78
2022/09/11 13:10:06;;;;;;;1.40;1.30;;;25.10;99.90;;;;;;5061099;28;20437;-78
2022/09/11 13:12:52;;;;;;;1.23;1.23;;;25.50;99.90;;;;;;5033499;28;20882;-78
2022/09/11 13:15:42;;;;;;;0.93;0.93;;;26.50;99.90;;;;;;5043806;28;20432;-78
2022/09/11 13:18:24;;;;;;;1.33;1.33;;;27.50;99.90;;;;;;5044593;28;20841;-78
2022/09/11 13:21:09;;;;;;;1.20;1.20;;;27.70;99.90;;;;;;5058430;28;20431;-78
2022/09/11 13:23:37;;;;;;;1.60;1.50;;;27.60;99.90;;;;;;5050107;28;20439;-77
2022/09/11 13:26:10;;;;;;;1.25;1.20;;;27.00;99.90;;;;;;5054796;28;20431;-78
2022/09/11 13:28:50;;;;;;;1.15;1.15;;;26.60;99.90;;;;;;5037730;28;20495;-78
2022/09/11 13:31:32;;;;;;;1.20;1.20;;;26.40;99.90;;;;;;5051141;28;20905;-78
2022/09/11 13:34:02;;;;;;;1.50;1.40;;;25.90;99.90;;;;;;5051931;28;20929;-78